createdAt,value
2018-09-24T00:01:04.192Z,65.56
2018-09-24T00:03:33.110Z,66.12
2018-09-24T00:06:01.829Z,65.04
2018-09-24T00:08:30.630Z,65.39
2018-09-24T00:10:59.608Z,65.54
2018-09-24T00:13:28.590Z,65.82
2018-09-24T00:15:57.413Z,65.64
2018-09-24T00:18:26.208Z,65.48
2018-09-24T00:20:55.031Z,66.59
2018-09-24T00:23:24.022Z,66.45
2018-09-24T00:25:52.707Z,65.41
2018-09-24T00:28:21.568Z,66.62
2018-09-24T00:30:50.662Z,66.38
2018-09-24T00:33:19.561Z,65.47
2018-09-24T00:35:48.444Z,67.16
2018-09-24T00:38:17.353Z,67.64
2018-09-24T00:40:46.517Z,67.85
2018-09-24T00:43:15.669Z,67.25
2018-09-24T00:45:44.735Z,68.42
2018-09-24T00:48:13.504Z,67.67
2018-09-24T00:50:42.134Z,68.75
2018-09-24T00:53:10.840Z,68.18
2018-09-24T00:55:39.697Z,67.13
2018-09-24T00:58:08.683Z,67.88
2018-09-24T01:00:37.614Z,68.40
2018-09-24T01:03:06.702Z,67.91
2018-09-24T01:05:35.895Z,68.35
2018-09-24T01:08:05.011Z,67.96
2018-09-24T01:10:33.897Z,67.42
2018-09-24T01:13:02.775Z,67.01
2018-09-24T01:15:31.745Z,68.08
2018-09-24T01:18:00.582Z,67.38
2018-09-24T01:20:29.322Z,68.07
2018-09-24T01:22:57.907Z,67.54
2018-09-24T01:25:26.538Z,68.27
2018-09-24T01:27:55.394Z,68.12
2018-09-24T01:30:24.359Z,67.40
2018-09-24T01:32:53.266Z,67.76
2018-09-24T01:35:21.985Z,67.50
2018-09-24T01:37:50.939Z,67.14
2018-09-24T01:40:19.935Z,68.43
2018-09-24T01:42:49.174Z,68.20
2018-09-24T01:45:17.927Z,67.86
2018-09-24T01:47:46.773Z,69.82
2018-09-24T01:50:15.514Z,70.44
2018-09-24T01:52:44.254Z,69.62
2018-09-24T01:55:13.039Z,69.25
2018-09-24T01:57:42.056Z,69.07
2018-09-24T02:00:11.102Z,68.81
2018-09-24T02:02:40.062Z,69.31
2018-09-24T02:05:14.847Z,69.00
2018-09-24T02:07:43.829Z,70.06
2018-09-24T02:10:13.002Z,68.52
2018-09-24T02:12:42.207Z,70.44
2018-09-24T02:15:11.113Z,70.54
2018-09-24T02:17:40.012Z,69.85
2018-09-24T02:20:08.670Z,70.02
2018-09-24T02:22:37.830Z,70.33
2018-09-24T02:25:06.889Z,70.17
2018-09-24T02:27:35.788Z,70.88
2018-09-24T02:30:05.139Z,70.83
2018-09-24T02:32:34.036Z,70.05
2018-09-24T02:35:03.026Z,70.47
2018-09-24T02:37:31.937Z,71.27
2018-09-24T02:40:00.830Z,70.42
2018-09-24T02:42:29.626Z,69.96
2018-09-24T02:44:59.394Z,71.77
2018-09-24T02:47:32.544Z,72.12
2018-09-24T02:50:02.779Z,72.04
2018-09-24T02:52:31.485Z,71.10
2018-09-24T02:55:00.515Z,72.34
2018-09-24T02:57:29.335Z,72.44
2018-09-24T02:59:58.327Z,72.09
2018-09-24T03:02:27.126Z,70.61
2018-09-24T03:04:57.005Z,71.25
2018-09-24T03:07:25.843Z,71.46
2018-09-24T03:09:54.923Z,71.37
2018-09-24T03:12:24.014Z,72.65
2018-09-24T03:14:53.027Z,72.29
2018-09-24T03:17:22.184Z,72.91
2018-09-24T03:19:50.775Z,72.71
2018-09-24T03:22:22.625Z,72.52
2018-09-24T03:24:51.864Z,71.43
2018-09-24T03:27:20.950Z,72.21
2018-09-24T03:29:49.707Z,71.86
2018-09-24T03:32:18.607Z,72.99
2018-09-24T03:34:47.531Z,73.06
2018-09-24T03:37:16.468Z,74.64
2018-09-24T03:39:45.443Z,73.44
2018-09-24T03:42:14.312Z,72.95
2018-09-24T03:44:43.462Z,72.87
2018-09-24T03:47:12.661Z,73.68
2018-09-24T03:49:41.310Z,74.51
2018-09-24T03:52:10.070Z,74.79
2018-09-24T03:54:38.800Z,73.93
2018-09-24T03:57:07.613Z,73.37
2018-09-24T03:59:36.451Z,74.92
2018-09-24T04:02:05.130Z,75.52
2018-09-24T04:04:39.387Z,76.58
2018-09-24T04:07:13.351Z,75.81
2018-09-24T04:09:47.607Z,76.83
2018-09-24T04:12:21.366Z,76.19
2018-09-24T04:14:55.800Z,75.89
2018-09-24T04:17:29.784Z,75.68
2018-09-24T04:20:03.947Z,75.86
2018-09-24T04:22:37.879Z,76.38
2018-09-24T04:25:11.983Z,77.25
2018-09-24T04:27:45.994Z,77.07
2018-09-24T04:30:19.939Z,76.87
2018-09-24T04:32:54.064Z,77.25
2018-09-24T04:35:28.298Z,76.67
2018-09-24T04:38:02.626Z,75.90
2018-09-24T04:40:36.623Z,76.49
2018-09-24T04:43:10.686Z,76.64
2018-09-24T04:45:44.567Z,76.36
2018-09-24T04:48:18.339Z,76.08
2018-09-24T04:50:52.519Z,76.50
2018-09-24T04:53:26.491Z,75.45
2018-09-24T04:56:00.803Z,75.81
2018-09-24T04:58:34.865Z,75.11
2018-09-24T05:01:08.865Z,74.78
2018-09-24T05:03:42.768Z,75.09
2018-09-24T05:06:16.947Z,75.59
2018-09-24T05:08:50.982Z,74.76
2018-09-24T05:11:25.198Z,74.35
2018-09-24T05:13:59.004Z,74.18
2018-09-24T05:16:32.894Z,73.68
2018-09-24T05:19:06.813Z,72.94
2018-09-24T05:21:40.691Z,73.04
2018-09-24T05:24:14.806Z,71.72
2018-09-24T05:26:48.743Z,70.93
2018-09-24T05:29:22.634Z,70.08
2018-09-24T05:31:56.801Z,70.54
2018-09-24T05:34:30.818Z,67.95
2018-09-24T05:37:04.996Z,68.57
2018-09-24T05:39:39.225Z,67.43
2018-09-24T05:42:13.619Z,67.28
2018-09-24T05:44:47.733Z,66.03
2018-09-24T05:47:21.698Z,66.17
2018-09-24T05:49:55.837Z,64.65
2018-09-24T05:52:29.632Z,64.78
2018-09-24T05:55:03.596Z,64.91
2018-09-24T05:57:37.724Z,64.91
2018-09-24T06:00:12.090Z,63.95
2018-09-24T06:02:46.098Z,64.38
2018-09-24T06:05:19.982Z,64.39
2018-09-24T06:07:53.908Z,63.56
2018-09-24T06:10:27.830Z,63.69
2018-09-24T06:13:01.880Z,63.46
2018-09-24T06:15:36.076Z,63.73
2018-09-24T06:18:09.888Z,61.89
2018-09-24T06:20:44.012Z,62.22
2018-09-24T06:23:18.314Z,60.89
2018-09-24T06:25:52.412Z,62.07
2018-09-24T06:28:26.328Z,61.00
2018-09-24T06:31:00.287Z,59.34
2018-09-24T06:33:34.398Z,60.21
2018-09-24T06:36:08.546Z,58.78
2018-09-24T06:38:42.613Z,59.16
2018-09-24T06:41:16.378Z,59.54
2018-09-24T06:43:50.243Z,57.39
2018-09-24T06:46:24.296Z,57.35
2018-09-24T06:48:58.120Z,58.27
2018-09-24T06:51:32.829Z,57.14
2018-09-24T06:54:06.887Z,56.58
2018-09-24T06:56:40.837Z,56.31
2018-09-24T06:59:14.882Z,55.71
2018-09-24T07:01:48.924Z,55.28
2018-09-24T07:04:22.932Z,55.42
2018-09-24T07:06:56.864Z,54.26
2018-09-24T07:09:30.711Z,54.77
2018-09-24T07:12:04.704Z,54.04
2018-09-24T07:14:38.867Z,54.68
2018-09-24T07:17:12.851Z,53.30
2018-09-24T07:19:46.845Z,52.96
2018-09-24T07:22:21.112Z,52.58
2018-09-24T07:24:55.343Z,51.41
2018-09-24T07:27:29.250Z,50.79
2018-09-24T07:30:03.472Z,51.49
2018-09-24T07:32:37.468Z,49.99
2018-09-24T07:35:11.794Z,49.16
2018-09-24T07:37:45.976Z,48.25
2018-09-24T07:40:19.751Z,48.55
2018-09-24T07:42:53.773Z,48.68
2018-09-24T07:45:27.862Z,47.49
2018-09-24T07:48:01.844Z,47.12
2018-09-24T07:50:36.248Z,45.79
2018-09-24T07:53:10.379Z,47.09
2018-09-24T07:55:44.323Z,45.59
2018-09-24T07:58:18.481Z,44.23
2018-09-24T08:00:52.427Z,43.23
2018-09-24T08:03:26.519Z,43.59
2018-09-24T08:06:00.418Z,43.06
2018-09-24T08:08:34.648Z,42.80
2018-09-24T08:11:09.617Z,42.97
2018-09-24T08:13:43.618Z,42.56
2018-09-24T08:16:17.772Z,41.21
2018-09-24T08:18:52.011Z,40.97
2018-09-24T08:21:26.354Z,40.63
2018-09-24T08:24:00.538Z,39.88
2018-09-24T08:26:34.352Z,39.93
2018-09-24T08:29:08.383Z,38.38
2018-09-24T08:31:42.399Z,39.05
2018-09-24T08:34:16.535Z,38.59
2018-09-24T08:36:50.680Z,37.95
2018-09-24T08:39:24.975Z,38.54
2018-09-24T08:41:58.897Z,38.20
2018-09-24T08:44:32.831Z,38.94
2018-09-24T08:47:06.744Z,37.62
2018-09-24T08:49:40.840Z,38.47
2018-09-24T08:52:14.969Z,37.98
2018-09-24T08:54:48.956Z,38.25
2018-09-24T08:57:23.035Z,36.08
2018-09-24T08:59:57.129Z,36.09
2018-09-24T09:02:31.479Z,36.51
2018-09-24T09:05:05.288Z,34.87
2018-09-24T09:07:39.306Z,35.68
2018-09-24T09:10:13.148Z,35.60
2018-09-24T09:12:47.291Z,34.61
2018-09-24T09:15:21.131Z,35.10
2018-09-24T09:17:55.250Z,34.76
2018-09-24T09:20:29.384Z,34.55
2018-09-24T09:23:03.333Z,34.16
2018-09-24T09:25:37.413Z,35.44
2018-09-24T09:28:11.257Z,33.93
2018-09-24T09:30:45.259Z,32.92
2018-09-24T09:33:19.223Z,29.10
2018-09-24T09:35:53.189Z,27.02
2018-09-24T09:38:27.116Z,26.79
2018-09-24T09:41:01.447Z,26.75
2018-09-24T09:43:35.719Z,26.99
2018-09-24T09:46:09.808Z,27.42
2018-09-24T09:48:43.675Z,26.32
2018-09-24T09:51:17.959Z,26.55
2018-09-24T09:53:52.082Z,25.49
2018-09-24T09:56:26.179Z,24.93
2018-09-24T09:59:00.025Z,25.41
2018-09-24T10:01:33.908Z,24.81
2018-09-24T10:04:07.939Z,24.43
2018-09-24T10:06:41.578Z,25.11
2018-09-24T10:09:15.454Z,24.29
2018-09-24T10:11:49.542Z,24.45
2018-09-24T10:14:23.899Z,23.47
2018-09-24T10:16:57.624Z,24.42
2018-09-24T10:19:31.787Z,24.17
2018-09-24T10:22:05.695Z,22.76
2018-09-24T10:24:39.627Z,21.88
2018-09-24T10:27:13.822Z,22.92
2018-09-24T10:29:47.747Z,22.59
2018-09-24T10:32:21.997Z,22.38
2018-09-24T10:34:55.973Z,21.83
2018-09-24T10:37:29.895Z,21.99
2018-09-24T10:40:04.002Z,22.35
2018-09-24T10:42:38.130Z,22.09
2018-09-24T10:45:12.315Z,22.71
2018-09-24T10:47:46.275Z,22.73
2018-09-24T10:50:20.258Z,22.25
2018-09-24T10:52:54.113Z,23.19
2018-09-24T10:55:28.057Z,22.35
2018-09-24T10:58:02.147Z,22.39
2018-09-24T11:00:36.299Z,22.10
2018-09-24T11:03:10.041Z,22.06
2018-09-24T11:05:43.814Z,21.50
2018-09-24T11:08:17.575Z,22.50
2018-09-24T11:10:51.606Z,22.81
2018-09-24T11:13:25.830Z,23.26
2018-09-24T11:16:00.964Z,22.32
2018-09-24T11:18:36.104Z,22.28
2018-09-24T11:21:10.159Z,23.08
2018-09-24T11:23:44.095Z,22.42
2018-09-24T11:28:52.543Z,22.52
2018-09-24T11:31:26.386Z,21.99
2018-09-24T11:34:00.353Z,22.44
2018-09-24T11:36:34.504Z,24.95
2018-09-24T11:39:08.743Z,26.95
2018-09-24T11:41:43.160Z,27.57
2018-09-24T11:44:17.372Z,28.95
2018-09-24T11:46:51.785Z,30.50
2018-09-24T11:49:25.714Z,32.31
2018-09-24T11:52:06.970Z,36.76
2018-09-24T11:54:41.283Z,37.91
2018-09-24T11:57:15.699Z,39.14
2018-09-24T11:59:49.517Z,41.16
2018-09-24T12:02:23.885Z,42.08
2018-09-24T12:04:57.752Z,42.29
2018-09-24T12:07:31.850Z,42.05
2018-09-24T12:10:05.825Z,42.13
2018-09-24T12:12:40.231Z,42.83
2018-09-24T12:15:14.062Z,43.53
2018-09-24T12:17:48.821Z,42.84
2018-09-24T12:20:23.028Z,43.03
2018-09-24T12:22:57.066Z,43.17
2018-09-24T12:25:31.223Z,43.58
2018-09-24T12:28:06.166Z,43.23
2018-09-24T12:30:39.895Z,44.29
2018-09-24T12:33:13.866Z,44.26
2018-09-24T12:35:47.857Z,44.77
2018-09-24T12:38:22.037Z,44.24
2018-09-24T12:40:55.975Z,44.38
2018-09-24T12:43:30.398Z,43.37
2018-09-24T12:46:04.456Z,44.17
2018-09-24T12:48:38.860Z,44.05
2018-09-24T12:51:12.698Z,44.66
2018-09-24T12:53:47.247Z,44.74
2018-09-24T12:56:21.450Z,45.78
2018-09-24T12:58:55.586Z,45.11
2018-09-24T13:01:29.481Z,47.01
2018-09-24T13:04:03.667Z,47.71
2018-09-24T13:06:37.654Z,49.00
2018-09-24T13:09:12.855Z,49.09
2018-09-24T13:11:46.826Z,50.04
2018-09-24T13:14:21.091Z,50.00
2018-09-24T13:16:55.003Z,48.37
2018-09-24T13:19:29.051Z,48.56
2018-09-24T13:22:03.011Z,50.76
2018-09-24T13:24:37.131Z,52.08
2018-09-24T13:27:11.319Z,52.02
2018-09-24T13:29:45.325Z,52.64
2018-09-24T13:32:19.145Z,53.02
2018-09-24T13:34:53.219Z,53.51
2018-09-24T13:37:27.330Z,54.43
2018-09-24T13:40:01.591Z,55.67
2018-09-24T13:42:35.642Z,55.39
2018-09-24T13:45:09.936Z,55.37
2018-09-24T13:47:44.159Z,55.50
2018-09-24T13:50:18.387Z,55.94
2018-09-24T13:52:52.695Z,55.85
2018-09-24T13:55:26.975Z,54.73
2018-09-24T13:58:00.873Z,55.03
2018-09-24T14:00:35.295Z,55.07
2018-09-24T14:03:09.116Z,55.24
2018-09-24T14:05:43.462Z,55.58
2018-09-24T14:08:17.374Z,55.60
2018-09-24T14:10:51.403Z,55.40
2018-09-24T14:13:25.562Z,55.18
2018-09-24T14:16:00.193Z,55.19
2018-09-24T14:18:34.351Z,54.26
2018-09-24T14:21:08.463Z,53.07
2018-09-24T14:23:42.619Z,52.88
2018-09-24T14:26:16.664Z,53.03
2018-09-24T14:28:50.366Z,52.20
2018-09-24T14:31:24.359Z,52.01
2018-09-24T14:33:58.383Z,52.72
2018-09-24T14:36:32.944Z,53.84
2018-09-24T14:39:06.923Z,53.54
2018-09-24T14:41:41.041Z,53.56
2018-09-24T14:44:14.894Z,53.93
2018-09-24T14:46:49.231Z,54.08
2018-09-24T14:49:23.680Z,55.13
2018-09-24T14:51:57.868Z,55.62
2018-09-24T14:54:31.562Z,55.58
2018-09-24T14:57:05.226Z,56.97
2018-09-24T14:59:39.000Z,57.55
2018-09-24T15:02:13.168Z,57.48
2018-09-24T15:04:47.235Z,57.95
2018-09-24T15:07:21.390Z,58.62
2018-09-24T15:09:55.266Z,59.31
2018-09-24T15:12:29.794Z,59.13
2018-09-24T15:15:03.903Z,59.21
2018-09-24T15:17:37.995Z,59.61
2018-09-24T15:20:11.900Z,60.16
2018-09-24T15:22:46.265Z,59.07
2018-09-24T15:25:20.005Z,60.17
2018-09-24T15:27:53.872Z,59.51
2018-09-24T15:30:28.030Z,59.73
2018-09-24T15:33:02.597Z,60.48
2018-09-24T15:35:36.566Z,60.86
2018-09-24T15:38:10.724Z,60.44
2018-09-24T15:40:44.692Z,60.87
2018-09-24T15:43:19.303Z,61.25
2018-09-24T15:45:53.562Z,60.79
2018-09-24T15:48:27.594Z,60.87
2018-09-24T15:51:01.776Z,61.24
2018-09-24T15:53:35.612Z,60.70
2018-09-24T15:56:09.422Z,60.60
2018-09-24T15:58:43.496Z,61.73
2018-09-24T16:01:17.350Z,60.79
2018-09-24T16:03:51.473Z,61.00
2018-09-24T16:06:25.564Z,60.88
2018-09-24T16:08:59.977Z,62.06
2018-09-24T16:11:33.857Z,62.22
2018-09-24T16:14:08.246Z,61.76
2018-09-24T16:16:42.322Z,62.71
2018-09-24T16:19:16.514Z,62.51
2018-09-24T16:21:50.275Z,62.42
2018-09-24T16:24:24.366Z,61.99
2018-09-24T16:26:58.117Z,63.10
2018-09-24T16:29:32.037Z,62.78
2018-09-24T16:32:06.030Z,63.30
2018-09-24T16:34:40.355Z,64.52
2018-09-24T16:37:14.403Z,65.19
2018-09-24T16:39:48.573Z,64.55
2018-09-24T16:42:22.651Z,64.91
2018-09-24T16:44:56.935Z,64.07
2018-09-24T16:47:30.858Z,64.78
2018-09-24T16:50:05.325Z,64.40
2018-09-24T16:52:39.474Z,63.95
2018-09-24T16:55:13.662Z,63.50
2018-09-24T16:57:47.706Z,64.06
2018-09-24T17:00:21.922Z,63.94
2018-09-24T17:02:55.715Z,63.91
2018-09-24T17:05:30.034Z,64.63
2018-09-24T17:08:04.039Z,63.64
2018-09-24T17:10:38.446Z,63.81
2018-09-24T17:13:12.478Z,63.69
2018-09-24T17:15:46.413Z,64.10
2018-09-24T17:18:20.572Z,64.03
2018-09-24T17:20:54.266Z,65.40
2018-09-24T17:23:27.948Z,65.93
2018-09-24T17:26:01.795Z,66.60
2018-09-24T17:28:35.782Z,66.79
2018-09-24T17:31:09.858Z,68.26
2018-09-24T17:33:44.018Z,67.96
2018-09-24T17:36:18.287Z,67.30
2018-09-24T17:38:52.328Z,67.13
2018-09-24T17:41:26.587Z,67.16
2018-09-24T17:44:00.519Z,66.85
2018-09-24T17:46:34.601Z,66.47
2018-09-24T17:49:08.518Z,65.94
2018-09-24T17:51:42.715Z,66.07
2018-09-24T17:54:16.503Z,65.74
2018-09-24T17:56:50.330Z,66.04
2018-09-24T17:59:24.251Z,65.86
2018-09-24T18:01:58.591Z,65.96
2018-09-24T18:04:32.475Z,66.37
2018-09-24T18:07:06.802Z,65.53
2018-09-24T18:09:40.715Z,66.49
2018-09-24T18:12:14.503Z,66.73
2018-09-24T18:14:48.442Z,66.11
2018-09-24T18:17:22.759Z,66.18
2018-09-24T18:19:57.053Z,66.30
2018-09-24T18:22:31.183Z,65.94
2018-09-24T18:25:05.055Z,66.57
2018-09-24T18:27:39.571Z,67.18
2018-09-24T18:30:13.430Z,66.41
2018-09-24T18:32:47.679Z,65.87
2018-09-24T18:35:21.724Z,65.89
2018-09-24T18:37:56.352Z,65.87
2018-09-24T18:40:30.206Z,66.59
2018-09-24T18:43:04.618Z,66.71
2018-09-24T18:45:38.435Z,66.59
2018-09-24T18:48:12.559Z,66.91
2018-09-24T18:50:46.270Z,66.78
2018-09-24T18:53:20.203Z,66.70
2018-09-24T18:55:54.608Z,67.28
2018-09-24T18:58:28.574Z,68.27
2018-09-24T19:01:02.434Z,67.70
2018-09-24T19:03:36.726Z,68.20
2018-09-24T19:06:11.060Z,67.68
2018-09-24T19:08:45.108Z,68.35
2018-09-24T19:11:27.703Z,68.35
2018-09-24T19:13:53.787Z,68.24
2018-09-24T19:16:27.559Z,67.49
2018-09-24T19:19:01.433Z,67.91
2018-09-24T19:21:35.259Z,67.71
2018-09-24T19:24:09.142Z,67.43
2018-09-24T19:26:43.310Z,66.79
2018-09-24T19:29:17.461Z,67.06
2018-09-24T19:31:51.505Z,66.95
2018-09-24T19:34:25.281Z,66.42
2018-09-24T19:36:59.255Z,66.59
2018-09-24T19:39:33.250Z,66.18
2018-09-24T19:42:07.165Z,65.42
2018-09-24T19:44:41.518Z,66.07
2018-09-24T19:47:15.447Z,65.29
2018-09-24T19:49:49.411Z,64.89
2018-09-24T19:52:23.258Z,65.08
2018-09-24T19:54:57.879Z,65.81
2018-09-24T19:57:32.163Z,65.31
2018-09-24T20:00:06.279Z,65.98
2018-09-24T20:02:40.166Z,66.46
2018-09-24T20:05:14.519Z,67.14
2018-09-24T20:07:48.582Z,67.75
2018-09-24T20:10:22.901Z,69.26
2018-09-24T20:12:57.027Z,69.81
2018-09-24T20:15:31.181Z,71.26
2018-09-24T20:18:05.030Z,72.31
2018-09-24T20:20:39.075Z,73.63
2018-09-24T20:23:12.819Z,74.98
2018-09-24T20:25:47.437Z,75.86
2018-09-24T20:28:21.493Z,76.39
2018-09-24T20:30:56.051Z,76.74
2018-09-24T20:33:30.043Z,76.81
2018-09-24T20:36:04.422Z,77.25
2018-09-24T20:38:38.352Z,77.28
2018-09-24T20:41:12.704Z,77.37
2018-09-24T20:43:46.614Z,77.72
2018-09-24T20:46:20.751Z,78.38
2018-09-24T20:48:54.619Z,79.46
2018-09-24T20:51:29.194Z,79.46
2018-09-24T20:54:03.251Z,79.93
2018-09-24T20:56:37.580Z,78.75
2018-09-24T20:59:11.492Z,79.21
2018-09-24T21:01:45.882Z,80.03
2018-09-24T21:04:19.866Z,78.82
2018-09-24T21:06:54.080Z,77.80
2018-09-24T21:09:28.079Z,78.41
2018-09-24T21:12:02.189Z,77.77
2018-09-24T21:14:36.238Z,76.34
2018-09-24T21:17:10.544Z,75.44
2018-09-24T21:19:44.938Z,75.50
2018-09-24T21:22:18.782Z,76.44
2018-09-24T21:24:52.778Z,74.35
2018-09-24T21:27:27.208Z,74.57
2018-09-24T21:30:01.115Z,75.09
2018-09-24T21:32:35.104Z,73.83
2018-09-24T21:35:09.208Z,73.60
2018-09-24T21:37:43.351Z,73.91
2018-09-24T21:40:17.407Z,72.60
2018-09-24T21:42:51.842Z,72.18
2018-09-24T21:45:25.719Z,72.76
2018-09-24T21:47:59.988Z,72.03
2018-09-24T21:50:33.607Z,72.72
2018-09-24T21:53:07.562Z,71.95
2018-09-24T21:55:41.693Z,71.47
2018-09-24T21:58:15.742Z,71.73
2018-09-24T22:00:49.546Z,71.93
2018-09-24T22:03:23.655Z,71.82
2018-09-24T22:05:57.715Z,72.00
2018-09-24T22:08:32.133Z,71.94
2018-09-24T22:11:06.162Z,72.47
2018-09-24T22:13:40.351Z,71.99
2018-09-24T22:16:14.196Z,71.95
2018-09-24T22:18:47.902Z,71.59
2018-09-24T22:21:21.700Z,72.30
2018-09-24T22:23:55.942Z,71.84
2018-09-24T22:26:30.138Z,72.81
2018-09-24T22:29:04.196Z,71.90
2018-09-24T22:31:38.058Z,72.52
2018-09-24T22:34:12.314Z,72.18
2018-09-24T22:36:46.535Z,72.13
2018-09-24T22:39:20.458Z,72.15
2018-09-24T22:41:54.741Z,71.27
2018-09-24T22:44:29.068Z,71.02
2018-09-24T22:47:02.777Z,71.24
2018-09-24T22:49:36.915Z,70.70
2018-09-24T22:52:10.747Z,70.19
2018-09-24T22:54:45.032Z,70.42
2018-09-24T22:57:19.177Z,70.12
2018-09-24T22:59:53.367Z,70.79
2018-09-24T23:02:27.153Z,70.28
2018-09-24T23:05:01.431Z,69.93
2018-09-24T23:07:35.485Z,69.73
2018-09-24T23:10:09.798Z,69.55
2018-09-24T23:12:43.926Z,69.99
2018-09-24T23:15:18.011Z,68.93
2018-09-24T23:17:51.865Z,69.17
2018-09-24T23:20:25.662Z,68.43
2018-09-24T23:23:00.168Z,68.27
2018-09-24T23:25:34.027Z,68.88
2018-09-24T23:28:08.098Z,68.34
2018-09-24T23:30:42.028Z,68.89
2018-09-24T23:33:16.262Z,68.61
2018-09-24T23:35:50.164Z,68.39
2018-09-24T23:38:24.059Z,68.21
2018-09-24T23:40:57.991Z,67.84
2018-09-24T23:43:32.000Z,67.93
2018-09-24T23:46:05.874Z,66.82
2018-09-24T23:48:39.750Z,67.59
2018-09-24T23:51:13.854Z,67.55
2018-09-24T23:53:48.373Z,67.14
2018-09-24T23:56:22.241Z,67.01
2018-09-24T23:58:56.030Z,66.73
